createdAt,value
2023-03-23T15:58:45.266Z,99802.80
2023-03-23T16:01:18.549Z,99807.00
2023-03-23T16:03:54.605Z,99810.41
2023-03-23T16:06:25.143Z,99814.52
2023-03-23T16:08:57.265Z,99815.11
2023-03-23T16:11:28.531Z,99818.27
2023-03-23T16:13:57.717Z,99816.42
2023-03-23T16:16:34.919Z,99809.38
2023-03-23T16:19:07.013Z,99795.30
2023-03-23T16:21:36.872Z,99784.92
2023-03-23T16:24:06.092Z,99780.80
2023-03-23T16:26:35.634Z,99776.73
2023-03-23T16:29:18.879Z,99766.30
2023-03-23T16:31:57.530Z,99747.66
2023-03-23T16:34:29.148Z,99736.13
2023-03-23T16:36:57.922Z,99723.31
2023-03-23T16:39:26.531Z,99709.02
2023-03-23T16:41:55.259Z,99688.10
2023-03-23T16:44:24.200Z,99666.91
2023-03-23T16:46:53.537Z,99650.95
2023-03-23T16:49:22.455Z,99641.36
2023-03-23T16:51:53.053Z,99641.88
2023-03-23T16:54:21.770Z,99650.71
2023-03-23T16:56:50.411Z,99654.48
2023-03-23T16:59:19.552Z,99688.41
2023-03-23T17:01:48.272Z,99692.31
2023-03-23T17:04:18.976Z,99687.37
2023-03-23T17:06:48.029Z,99671.66
2023-03-23T17:09:17.621Z,99652.98
2023-03-23T17:11:46.366Z,99634.56
2023-03-23T17:14:15.850Z,99613.67
2023-03-23T17:16:49.939Z,99589.95
2023-03-23T17:19:19.350Z,99568.62
2023-03-23T17:21:48.207Z,99550.33
2023-03-23T17:24:21.275Z,99531.88
2023-03-23T17:26:49.926Z,99518.47
2023-03-23T17:29:18.518Z,99497.63
2023-03-23T17:31:50.730Z,99475.73
2023-03-23T17:34:19.897Z,99457.17
2023-03-23T17:36:51.689Z,99438.04
2023-03-23T17:39:20.375Z,99421.98
2023-03-23T17:41:48.955Z,99412.48
2023-03-23T17:44:17.562Z,99415.77
2023-03-23T17:46:46.701Z,99425.85
2023-03-23T17:49:15.220Z,99435.05
2023-03-23T17:51:44.653Z,99446.37
2023-03-23T17:54:14.688Z,99452.47
2023-03-23T17:56:43.426Z,99453.35
2023-03-23T17:59:12.987Z,99445.89
2023-03-23T18:01:41.834Z,99439.34
2023-03-23T18:04:10.607Z,99426.03
2023-03-23T18:06:40.518Z,99413.16
2023-03-23T18:09:09.347Z,99410.81
2023-03-23T18:11:39.031Z,99401.59
2023-03-23T18:14:08.053Z,99403.02
2023-03-23T18:16:43.102Z,99399.88
2023-03-23T18:19:12.560Z,99397.29
2023-03-23T18:21:41.725Z,99387.11
2023-03-23T18:24:11.188Z,99374.57
2023-03-23T18:26:39.825Z,99371.90
2023-03-23T18:29:08.413Z,99364.98
2023-03-23T18:31:40.422Z,99350.39
2023-03-23T18:34:09.346Z,99342.67
2023-03-23T18:36:39.154Z,99338.60
2023-03-23T18:39:10.793Z,99330.50
2023-03-23T18:41:42.760Z,99322.06
2023-03-23T18:44:11.382Z,99315.89
2023-03-23T18:46:42.418Z,99310.80
2023-03-23T18:49:11.490Z,99304.53
2023-03-23T18:51:42.474Z,99300.10
2023-03-23T18:54:11.205Z,99295.55
2023-03-23T18:56:39.714Z,99290.83
2023-03-23T18:59:08.686Z,99281.84
2023-03-23T19:01:37.833Z,99280.23
2023-03-23T19:04:07.038Z,99278.80
2023-03-23T19:06:38.932Z,99277.57
2023-03-23T19:09:07.965Z,99279.09
2023-03-23T19:11:38.467Z,99280.33
2023-03-23T19:14:07.137Z,99283.84
2023-03-23T19:16:36.280Z,99281.80
2023-03-23T19:19:08.683Z,99277.82
2023-03-23T19:21:40.113Z,99281.73
2023-03-23T19:24:09.468Z,99274.58
2023-03-23T19:26:40.323Z,99272.47
2023-03-23T19:31:46.520Z,99271.98
2023-03-23T19:34:16.987Z,99266.39
2023-03-23T19:36:53.720Z,99263.43
2023-03-23T19:39:25.194Z,99266.54
2023-03-23T19:41:56.280Z,99262.02
2023-03-23T19:44:25.660Z,99263.86
2023-03-23T19:46:54.363Z,99264.14
2023-03-23T19:49:23.208Z,99265.42
2023-03-23T19:52:07.912Z,99264.50
2023-03-23T19:54:39.700Z,99262.26
2023-03-23T19:57:10.728Z,99265.98
2023-03-23T19:59:39.522Z,99260.33
2023-03-23T20:02:11.741Z,99263.13
2023-03-23T20:04:41.892Z,99260.17
2023-03-23T20:07:10.776Z,99264.77
2023-03-23T20:09:39.579Z,99264.07
2023-03-23T20:12:13.287Z,99268.48
2023-03-23T20:14:45.116Z,99266.92
2023-03-23T20:17:14.934Z,99266.48
2023-03-23T20:19:46.967Z,99266.60
2023-03-23T20:22:15.707Z,99265.05
2023-03-23T20:24:47.323Z,99268.25
2023-03-23T20:27:17.470Z,99269.02
2023-03-23T20:29:46.499Z,99273.31
2023-03-23T20:32:18.013Z,99271.33
2023-03-23T20:34:49.611Z,99276.83
2023-03-23T20:37:20.976Z,99278.23
2023-03-23T20:39:52.464Z,99274.61
2023-03-23T20:42:21.706Z,99279.95
2023-03-23T20:44:50.410Z,99276.39
2023-03-23T20:47:20.810Z,99280.38
2023-03-23T20:49:53.722Z,99281.80
2023-03-23T20:52:23.987Z,99285.31
2023-03-23T20:54:55.284Z,99288.83
2023-03-23T20:57:24.086Z,99282.94
2023-03-23T20:59:53.616Z,99286.92
2023-03-23T21:02:22.595Z,99288.14
2023-03-23T21:04:53.183Z,99283.00
2023-03-23T21:07:24.136Z,99287.00
2023-03-23T21:09:52.819Z,99287.27
2023-03-23T21:12:23.459Z,99289.35
2023-03-23T21:14:52.529Z,99288.63
2023-03-23T21:17:21.341Z,99292.53
2023-03-23T21:19:58.354Z,99291.68
2023-03-23T21:22:27.601Z,99296.19
2023-03-23T21:24:56.239Z,99297.06
2023-03-23T21:27:31.546Z,99294.69
2023-03-23T21:30:01.387Z,99296.52
2023-03-23T21:32:30.352Z,99296.19
2023-03-23T21:35:02.944Z,99297.13
2023-03-23T21:37:32.829Z,99299.88
2023-03-23T21:40:13.693Z,99296.72
2023-03-23T21:42:45.838Z,99303.77
2023-03-23T21:45:18.795Z,99303.23
2023-03-23T21:47:49.079Z,99306.14
2023-03-23T21:50:18.211Z,99311.27
2023-03-23T21:52:51.371Z,99311.02
2023-03-23T21:55:20.454Z,99312.52
2023-03-23T21:57:48.989Z,99316.63
2023-03-23T22:00:19.191Z,99316.46
2023-03-23T22:02:49.523Z,99318.13
2023-03-23T22:05:18.496Z,99317.39
2023-03-23T22:07:47.861Z,99320.54
2023-03-23T22:10:16.522Z,99323.60
2023-03-23T22:12:45.346Z,99325.92
2023-03-23T22:15:18.468Z,99328.58
2023-03-23T22:17:47.718Z,99335.16
2023-03-23T22:20:16.273Z,99335.21
2023-03-23T22:22:50.240Z,99335.63
2023-03-23T22:25:19.550Z,99341.75
2023-03-23T22:27:48.921Z,99347.38
2023-03-23T22:30:17.899Z,99353.89
2023-03-23T22:32:46.768Z,99358.15
2023-03-23T22:35:15.320Z,99361.31
2023-03-23T22:37:45.833Z,99364.14
2023-03-23T22:40:14.660Z,99372.55
2023-03-23T22:42:46.387Z,99372.67
2023-03-23T22:45:16.013Z,99376.79
2023-03-23T22:47:44.845Z,99376.38
2023-03-23T22:50:16.953Z,99386.55
2023-03-23T22:52:45.887Z,99394.47
2023-03-23T22:55:16.539Z,99394.50
2023-03-23T22:57:45.623Z,99394.31
2023-03-23T23:00:18.773Z,99400.21
2023-03-23T23:02:48.106Z,99408.29
2023-03-23T23:05:17.026Z,99414.54
2023-03-23T23:07:50.741Z,99417.54
2023-03-23T23:10:19.770Z,99425.36
2023-03-23T23:12:48.858Z,99426.55
2023-03-23T23:15:22.558Z,99432.77
2023-03-23T23:17:52.313Z,99436.73
2023-03-23T23:20:20.980Z,99435.53
2023-03-23T23:22:52.697Z,99437.15
2023-03-23T23:25:21.480Z,99433.54
2023-03-23T23:27:53.460Z,99419.13
2023-03-23T23:30:22.539Z,99419.79
2023-03-23T23:32:52.395Z,99422.92
2023-03-23T23:35:26.670Z,99422.24
2023-03-23T23:37:56.490Z,99420.72
2023-03-23T23:40:25.122Z,99417.11
2023-03-23T23:42:54.026Z,99411.70
2023-03-23T23:45:23.169Z,99411.54
2023-03-23T23:47:59.927Z,99412.16
2023-03-23T23:50:28.540Z,99410.80
2023-03-23T23:52:58.964Z,99410.35
2023-03-23T23:55:28.413Z,99410.19
2023-03-23T23:57:57.302Z,99411.89
